Time;durP1;ratioP1;P1;durP2;ratioP2;P2;SDS_P1;SDS_P2;PMS_P1;PMS_P2;Temp;Humidity;BMP_temperature;BMP_pressure;BME280_temperature;BME280_humidity;BME280_pressure;Samples;Min_cycle;Max_cycle;Signal;HPM_P1;HPM_P2
2023/05/14 00:00:56;;;;;;;4.13;2.47;;;;;;;17.16;52.90;95045.63;5133917;27;20198;-41
2023/05/14 00:03:22;;;;;;;3.03;2.40;;;;;;;17.19;53.06;95052.25;5116119;27;20205;-44
2023/05/14 00:05:51;;;;;;;2.60;2.40;;;;;;;17.18;53.01;95048.03;5114808;28;20182;-41
2023/05/14 00:08:17;;;;;;;2.83;2.50;;;;;;;17.18;52.90;95033.34;5113231;28;20585;-47
2023/05/14 00:10:44;;;;;;;3.47;3.17;;;;;;;17.15;52.97;95033.69;5113249;28;20189;-45
2023/05/14 00:13:11;;;;;;;4.07;2.90;;;;;;;17.08;53.00;95000.94;5112970;28;20188;-43
2023/05/14 00:15:38;;;;;;;4.47;2.90;;;;;;;17.16;53.09;95016.41;5113007;28;20589;-43
2023/05/14 00:18:05;;;;;;;3.27;2.63;;;;;;;17.07;53.13;95001.94;5112849;28;20181;-44
2023/05/14 00:20:32;;;;;;;2.30;2.20;;;;;;;17.10;52.92;94998.97;5113408;28;20224;-47
2023/05/14 00:23:00;;;;;;;3.13;2.83;;;;;;;17.16;53.02;95011.25;5115306;28;20200;-46
2023/05/14 00:25:28;;;;;;;2.50;2.30;;;;;;;17.15;53.07;95018.19;5112753;28;20232;-46
2023/05/14 00:27:54;;;;;;;3.20;2.90;;;;;;;17.15;52.97;95009.63;5112408;28;20257;-44
2023/05/14 00:30:21;;;;;;;3.87;3.10;;;;;;;17.15;53.03;95012.22;5113107;28;20193;-46
2023/05/14 00:32:48;;;;;;;2.97;2.77;;;;;;;17.16;53.06;95016.41;5112874;28;20321;-46
2023/05/14 00:35:15;;;;;;;3.47;2.70;;;;;;;17.15;53.07;95007.06;5112897;28;20192;-44
2023/05/14 00:37:41;;;;;;;3.03;2.70;;;;;;;17.14;53.07;95005.41;5113156;28;20223;-44
2023/05/14 00:40:11;;;;;;;3.20;2.90;;;;;;;17.10;52.97;95004.16;5112757;28;20181;-46
2023/05/14 00:42:38;;;;;;;3.00;2.70;;;;;;;17.13;53.08;95002.03;5112271;28;20678;-45
2023/05/14 00:45:06;;;;;;;2.97;2.67;;;;;;;17.05;53.20;94992.56;5112281;28;20185;-45
2023/05/14 00:47:34;;;;;;;3.43;2.97;;;;;;;17.11;53.34;95000.63;5111953;28;20193;-45
2023/05/14 00:50:01;;;;;;;2.50;2.30;;;;;;;17.10;53.30;95011.91;5112253;28;20268;-45
2023/05/14 00:52:27;;;;;;;3.33;2.70;;;;;;;17.08;53.24;95000.94;5112058;28;20688;-46
2023/05/14 00:54:54;;;;;;;4.10;2.90;;;;;;;16.90;53.25;94973.59;5112197;28;20193;-46
2023/05/14 00:57:23;;;;;;;4.63;3.27;;;;;;;17.05;53.23;95002.06;5112035;28;20221;-46
2023/05/14 00:59:50;;;;;;;4.30;2.83;;;;;;;17.03;53.24;94993.69;5112178;28;20185;-46
2023/05/14 01:02:16;;;;;;;4.73;2.77;;;;;;;17.04;53.23;94990.13;5112383;28;20283;-46
2023/05/14 01:04:43;;;;;;;3.57;2.80;;;;;;;17.02;53.28;94985.16;5112160;28;20185;-45
2023/05/14 01:07:20;;;;;;;4.67;2.83;;;;;;;17.02;53.51;94997.28;5112047;28;20201;-45
2023/05/14 01:09:53;;;;;;;3.83;2.90;;;;;;;17.00;53.42;94999.19;5112083;28;20204;-45
2023/05/14 01:12:29;;;;;;;3.73;2.63;;;;;;;17.00;53.22;94996.63;5111835;28;20715;-45
2023/05/14 01:15:02;;;;;;;2.80;2.60;;;;;;;16.98;53.38;94986.47;5112041;28;20234;-46
2023/05/14 01:17:32;;;;;;;2.80;2.60;;;;;;;16.76;53.21;94951.88;5112011;28;20220;-46
2023/05/14 01:20:00;;;;;;;4.23;2.77;;;;;;;16.97;53.36;94996.97;5112074;28;20618;-48
2023/05/14 01:22:28;;;;;;;3.30;3.00;;;;;;;16.98;53.27;95006.34;5115368;28;20227;-45
2023/05/14 01:24:55;;;;;;;4.80;2.93;;;;;;;16.93;53.25;95004.25;5115889;28;20293;-46
2023/05/14 01:27:26;;;;;;;2.90;2.67;;;;;;;16.94;53.38;95015.38;5112263;28;20279;-46
2023/05/14 01:29:59;;;;;;;3.00;2.47;;;;;;;16.91;53.35;95015.72;5111326;28;20695;-44
2023/05/14 01:32:28;;;;;;;2.53;2.33;;;;;;;16.90;53.17;95014.91;5112748;28;20185;-41
2023/05/14 01:34:58;;;;;;;2.90;2.70;;;;;;;16.91;53.28;95024.28;5112744;28;20183;-44
2023/05/14 01:37:27;;;;;;;5.63;3.03;;;;;;;16.87;53.38;95017.03;5113172;28;20228;-43
2023/05/14 01:39:56;;;;;;;3.47;2.67;;;;;;;16.88;53.29;95019.47;5111643;28;20189;-43
2023/05/14 01:42:23;;;;;;;3.03;2.63;;;;;;;16.90;53.41;95021.88;5111377;28;20203;-40
2023/05/14 01:44:50;;;;;;;4.80;3.10;;;;;;;16.87;53.26;95015.25;5111588;28;20345;-45
2023/05/14 01:47:17;;;;;;;2.97;2.67;;;;;;;16.89;53.17;95015.09;5111281;28;20288;-46
2023/05/14 01:49:44;;;;;;;2.63;2.43;;;;;;;16.89;53.06;95015.09;5111036;28;20193;-46
2023/05/14 01:52:10;;;;;;;2.73;2.50;;;;;;;16.88;53.24;95010.88;5111168;28;20193;-45
2023/05/14 01:54:37;;;;;;;5.37;2.77;;;;;;;16.85;53.16;95011.25;5111015;28;20193;-44
2023/05/14 01:57:05;;;;;;;2.57;2.37;;;;;;;16.86;53.07;95020.59;5111064;28;20224;-45
2023/05/14 01:59:32;;;;;;;3.87;2.50;;;;;;;16.85;53.01;95019.78;5111144;28;20195;-43
2023/05/14 02:01:59;;;;;;;4.50;2.87;;;;;;;16.79;53.15;95017.84;5110597;28;20260;-46
2023/05/14 02:04:26;;;;;;;3.00;2.53;;;;;;;16.62;53.13;94980.13;5110797;28;20189;-46
2023/05/14 02:06:52;;;;;;;4.07;2.90;;;;;;;16.81;53.17;95018.50;5110533;28;20554;-45
2023/05/14 02:09:19;;;;;;;3.40;2.83;;;;;;;16.80;53.08;95027.25;5110732;28;20581;-44
2023/05/14 02:11:46;;;;;;;2.40;2.20;;;;;;;16.59;53.12;94990.81;5110578;28;20189;-45
2023/05/14 02:14:15;;;;;;;4.17;2.63;;;;;;;16.75;53.18;95021.75;5110988;28;20177;-46
2023/05/14 02:16:41;;;;;;;3.13;2.53;;;;;;;16.55;53.19;95001.47;5110246;28;20244;-44
2023/05/14 02:19:08;;;;;;;2.77;2.57;;;;;;;16.73;53.34;95027.09;5110559;28;20192;-45
2023/05/14 02:21:35;;;;;;;3.10;2.90;;;;;;;16.68;53.14;95020.78;5110607;28;20658;-44
2023/05/14 02:24:02;;;;;;;2.83;2.53;;;;;;;16.69;53.24;95033.53;5110460;28;20208;-46
2023/05/14 02:26:29;;;;;;;2.67;2.47;;;;;;;16.69;53.23;95028.38;5112455;28;20206;-47
2023/05/14 02:28:56;;;;;;;3.93;2.73;;;;;;;16.67;53.33;95026.94;5111678;28;20197;-44
2023/05/14 02:31:24;;;;;;;2.73;2.50;;;;;;;16.66;53.59;95033.06;5110406;28;20193;-44
2023/05/14 02:33:51;;;;;;;3.47;2.60;;;;;;;16.59;53.57;95025.19;5110057;28;20654;-46
2023/05/14 02:36:17;;;;;;;2.90;2.60;;;;;;;16.63;53.58;95025.66;5110389;28;20277;-46
2023/05/14 02:38:44;;;;;;;2.63;2.40;;;;;;;16.61;53.57;95033.56;5110102;28;20535;-47
2023/05/14 02:41:11;;;;;;;2.77;2.57;;;;;;;16.11;53.76;94970.13;5111661;28;20200;-48
2023/05/14 02:43:38;;;;;;;3.93;2.63;;;;;;;16.59;53.59;95055.38;5110856;28;20192;-44
2023/05/14 02:46:05;;;;;;;3.03;2.80;;;;;;;16.58;53.77;95051.16;5110130;28;20200;-45
2023/05/14 02:48:33;;;;;;;6.07;2.53;;;;;;;16.56;53.86;95051.31;5109756;28;20192;-45
2023/05/14 02:51:00;;;;;;;2.80;2.27;;;;;;;16.55;53.92;95067.78;5110040;28;20189;-44
2023/05/14 02:53:27;;;;;;;2.50;2.30;;;;;;;16.52;53.63;95056.00;5110226;28;20629;-46
2023/05/14 02:55:53;;;;;;;2.93;2.73;;;;;;;16.54;53.81;95055.88;5111516;28;20643;-50
2023/05/14 02:58:20;;;;;;;2.80;2.60;;;;;;;16.48;53.70;95049.56;5111747;28;20225;-42
2023/05/14 03:00:47;;;;;;;2.70;2.27;;;;;;;16.49;53.69;95052.94;5110287;28;20185;-44
2023/05/14 03:03:14;;;;;;;3.27;2.60;;;;;;;16.51;53.81;95053.59;5110162;28;20200;-45
2023/05/14 03:05:42;;;;;;;2.93;2.30;;;;;;;16.50;53.89;95059.75;5110423;28;20188;-50
2023/05/14 03:08:08;;;;;;;5.47;2.87;;;;;;;16.44;53.70;95053.44;5111093;28;20188;-46
2023/05/14 03:10:35;;;;;;;3.47;2.50;;;;;;;16.50;53.89;95041.66;5109707;28;20189;-45
2023/05/14 03:13:03;;;;;;;2.67;2.47;;;;;;;16.49;53.79;95020.22;5109639;28;20189;-50
2023/05/14 03:15:30;;;;;;;2.80;2.50;;;;;;;16.46;53.77;95017.16;5109428;28;20192;-42
2023/05/14 03:17:56;;;;;;;2.60;2.40;;;;;;;16.47;53.68;95029.88;5109441;28;20221;-46
2023/05/14 03:20:24;;;;;;;2.33;2.23;;;;;;;16.34;53.92;95010.72;5109531;28;20695;-48
2023/05/14 03:22:53;;;;;;;3.00;2.70;;;;;;;16.47;53.87;95034.25;5109815;28;20189;-45
2023/05/14 03:25:20;;;;;;;3.43;2.73;;;;;;;16.46;54.02;95035.22;5109342;28;20220;-46
2023/05/14 03:27:47;;;;;;;2.77;2.57;;;;;;;16.41;53.97;95024.59;5109777;28;20623;-46
2023/05/14 03:30:14;;;;;;;2.33;2.13;;;;;;;16.43;54.04;95036.34;5109507;28;20592;-44
2023/05/14 03:32:41;;;;;;;2.70;2.50;;;;;;;16.42;54.15;95042.50;5109396;28;20189;-46
2023/05/14 03:35:09;;;;;;;3.03;2.60;;;;;;;16.42;54.12;95052.00;5109948;28;20184;-46
2023/05/14 03:37:35;;;;;;;3.93;2.27;;;;;;;16.36;54.21;95050.06;5109369;28;20235;-46
2023/05/14 03:40:05;;;;;;;2.60;2.40;;;;;;;16.38;54.38;95046.38;5109614;28;20189;-45
2023/05/14 03:42:31;;;;;;;3.87;2.50;;;;;;;16.37;54.51;95043.97;5109222;28;20189;-44
2023/05/14 03:44:58;;;;;;;3.00;2.80;;;;;;;16.35;54.45;95026.03;5109366;28;20193;-42
2023/05/14 03:47:25;;;;;;;3.07;2.30;;;;;;;16.29;54.81;95040.41;5108975;28;20215;-43
2023/05/14 03:49:52;;;;;;;3.63;2.53;;;;;;;16.31;54.85;95035.06;5110006;28;20253;-46
2023/05/14 03:52:19;;;;;;;4.33;2.57;;;;;;;16.31;54.85;95035.88;5109209;28;20196;-46
2023/05/14 03:54:45;;;;;;;2.70;2.50;;;;;;;16.30;54.89;95048.97;5109347;28;20208;-46
2023/05/14 03:57:13;;;;;;;5.83;2.53;;;;;;;16.27;55.18;95042.34;5108867;28;20221;-43
2023/05/14 03:59:40;;;;;;;4.37;2.50;;;;;;;16.29;54.98;95032.69;5109621;28;20185;-45
2023/05/14 04:02:07;;;;;;;2.37;2.17;;;;;;;16.01;55.19;94997.88;5109431;28;20257;-44
2023/05/14 04:04:34;;;;;;;3.20;2.90;;;;;;;15.85;55.30;94977.28;5109283;28;20646;-45
2023/05/14 04:07:01;;;;;;;3.07;2.77;;;;;;;16.27;55.13;95049.28;5109512;28;20182;-44
2023/05/14 04:09:27;;;;;;;4.60;2.63;;;;;;;16.23;55.17;95043.63;5109233;28;20185;-47
2023/05/14 04:11:54;;;;;;;3.80;2.57;;;;;;;16.26;55.11;95051.06;5109506;28;20185;-46
2023/05/14 04:14:22;;;;;;;4.60;2.37;;;;;;;16.15;55.21;95035.94;5109005;28;20216;-44
2023/05/14 04:16:49;;;;;;;3.07;2.30;;;;;;;16.24;55.31;95053.00;5108997;28;20289;-46
2023/05/14 04:19:16;;;;;;;2.90;2.60;;;;;;;16.24;55.29;95063.34;5109111;28;20204;-46
2023/05/14 04:21:43;;;;;;;2.50;2.30;;;;;;;16.27;55.14;95057.81;5110713;28;20185;-44
2023/05/14 04:24:09;;;;;;;2.33;2.23;;;;;;;16.27;55.14;95060.41;5112663;28;20189;-44
2023/05/14 04:26:36;;;;;;;2.27;2.17;;;;;;;16.26;55.25;95060.56;5112716;28;20205;-44
2023/05/14 04:29:03;;;;;;;2.30;2.10;;;;;;;16.23;55.32;95063.47;5112559;28;20196;-44
2023/05/14 04:31:31;;;;;;;2.67;2.47;;;;;;;16.28;55.10;95072.38;5113711;28;20193;-45
2023/05/14 04:33:58;;;;;;;2.93;2.57;;;;;;;16.26;55.14;95070.91;5113215;28;20185;-46
2023/05/14 04:36:25;;;;;;;2.67;2.47;;;;;;;16.26;55.15;95068.31;5112789;28;20181;-46
2023/05/14 04:38:52;;;;;;;3.73;2.30;;;;;;;16.27;55.12;95081.06;5112661;28;20761;-46
2023/05/14 04:41:18;;;;;;;4.30;2.70;;;;;;;16.27;55.11;95083.63;5112279;28;20696;-46
2023/05/14 04:43:46;;;;;;;2.40;2.30;;;;;;;16.33;55.09;95094.28;5112444;28;20196;-46
2023/05/14 04:46:13;;;;;;;2.97;2.33;;;;;;;16.25;55.14;95089.94;5112362;28;20640;-46
2023/05/14 04:48:41;;;;;;;2.60;2.40;;;;;;;16.33;55.07;95100.25;5112540;28;20549;-44
2023/05/14 04:51:08;;;;;;;2.73;2.53;;;;;;;16.34;55.25;95106.22;5112729;28;20180;-45
2023/05/14 04:53:35;;;;;;;2.17;2.07;;;;;;;16.21;55.28;95097.19;5112606;28;20189;-44
2023/05/14 04:56:02;;;;;;;3.13;2.20;;;;;;;16.36;55.27;95120.56;5112546;28;20193;-42
2023/05/14 04:58:31;;;;;;;3.63;2.50;;;;;;;16.37;55.50;95116.25;5112554;28;20217;-42
2023/05/14 05:00:58;;;;;;;4.10;2.43;;;;;;;16.17;55.46;95092.53;5112209;28;20253;-43
2023/05/14 05:03:25;;;;;;;2.50;2.30;;;;;;;16.36;55.49;95130.09;5112888;28;20192;-45
2023/05/14 05:05:53;;;;;;;4.70;2.50;;;;;;;16.37;55.58;95136.88;5112161;28;20276;-45
2023/05/14 05:08:20;;;;;;;4.10;2.43;;;;;;;16.37;55.72;95134.31;5112870;28;20181;-44
2023/05/14 05:10:46;;;;;;;2.50;2.30;;;;;;;16.35;56.06;95139.59;5112643;28;20193;-45
2023/05/14 05:13:15;;;;;;;4.43;2.67;;;;;;;16.36;55.93;95153.31;5112882;28;20199;-44
2023/05/14 05:15:42;;;;;;;2.70;2.50;;;;;;;16.35;56.16;95160.25;5113158;28;20205;-45
2023/05/14 05:18:09;;;;;;;2.57;2.30;;;;;;;16.35;56.22;95151.72;5113912;28;20220;-44
2023/05/14 05:20:36;;;;;;;3.10;2.73;;;;;;;16.28;56.35;95144.63;5112788;28;20196;-45
2023/05/14 05:23:04;;;;;;;2.77;2.57;;;;;;;16.23;56.47;95149.44;5112348;28;20226;-46
2023/05/14 05:25:31;;;;;;;2.90;2.70;;;;;;;16.31;56.63;95164.13;5112086;28;20231;-46
2023/05/14 05:27:58;;;;;;;2.50;2.30;;;;;;;16.33;56.52;95169.97;5111657;28;20653;-45
2023/05/14 05:30:25;;;;;;;2.50;2.30;;;;;;;16.32;56.71;95160.59;5112088;28;20181;-46
2023/05/14 05:32:51;;;;;;;3.13;2.50;;;;;;;16.32;56.80;95163.19;5111307;28;20197;-44
2023/05/14 05:35:18;;;;;;;2.80;2.60;;;;;;;16.30;56.92;95167.69;5111953;28;20602;-46
2023/05/14 05:37:45;;;;;;;3.40;2.70;;;;;;;16.29;56.98;95168.66;5111337;28;20221;-47
2023/05/14 05:40:14;;;;;;;2.80;2.60;;;;;;;16.27;57.23;95168.00;5111575;28;20192;-44
2023/05/14 05:42:42;;;;;;;3.07;2.57;;;;;;;16.25;57.31;95165.59;5111305;28;20270;-47
2023/05/14 05:45:09;;;;;;;2.40;2.20;;;;;;;16.25;57.61;95180.28;5111498;28;20200;-45
2023/05/14 05:47:36;;;;;;;3.70;2.70;;;;;;;16.16;57.55;95160.59;5111488;28;20193;-48
2023/05/14 05:50:03;;;;;;;2.70;2.50;;;;;;;16.21;57.73;95184.94;5111863;28;20230;-45
2023/05/14 05:52:30;;;;;;;3.10;2.80;;;;;;;16.19;58.08;95184.31;5111394;28;20645;-46
2023/05/14 05:54:56;;;;;;;3.20;3.00;;;;;;;16.15;58.22;95180.44;5111455;28;20185;-45
2023/05/14 05:57:26;;;;;;;2.93;2.73;;;;;;;16.13;58.35;95173.81;5111220;28;20689;-41
2023/05/14 05:59:53;;;;;;;3.83;2.60;;;;;;;16.08;58.58;95174.28;5111160;28;20272;-45
2023/05/14 06:02:20;;;;;;;3.03;2.73;;;;;;;16.02;58.91;95160.25;5111582;28;20769;-47
2023/05/14 06:04:47;;;;;;;3.97;3.57;;;;;;;16.03;59.20;95169.59;5111012;28;20386;-47
2023/05/14 06:07:14;;;;;;;4.40;2.80;;;;;;;15.98;59.34;95171.06;5111085;28;20196;-46
2023/05/14 06:09:40;;;;;;;3.43;2.87;;;;;;;15.96;59.62;95172.97;5111074;28;20284;-46
2023/05/14 06:12:08;;;;;;;3.53;2.93;;;;;;;15.93;59.83;95168.13;5110998;28;20696;-48
2023/05/14 06:14:36;;;;;;;2.80;2.60;;;;;;;15.90;60.14;95176.19;5110864;28;20196;-47
2023/05/14 06:17:03;;;;;;;3.10;2.90;;;;;;;15.88;60.26;95178.13;5111579;28;20234;-46
2023/05/14 06:19:30;;;;;;;4.80;2.97;;;;;;;15.84;60.64;95181.97;5111076;28;20228;-46
2023/05/14 06:21:57;;;;;;;3.20;2.90;;;;;;;15.78;60.82;95165.38;5111043;28;20203;-47
2023/05/14 06:24:23;;;;;;;3.53;2.93;;;;;;;15.77;61.13;95154.25;5110447;28;20228;-47
2023/05/14 06:26:50;;;;;;;3.13;2.60;;;;;;;15.75;60.99;95163.91;5110516;28;20249;-46
2023/05/14 06:29:17;;;;;;;4.27;3.00;;;;;;;15.71;61.39;95164.38;5111271;28;20196;-47
2023/05/14 06:31:45;;;;;;;4.40;3.37;;;;;;;15.71;61.40;95182.41;5110718;28;20241;-47
2023/05/14 06:34:12;;;;;;;4.60;3.10;;;;;;;15.57;61.57;95170.91;5111926;28;20234;-47
2023/05/14 06:36:39;;;;;;;3.87;3.03;;;;;;;15.66;61.78;95187.25;5112190;28;20177;-45
2023/05/14 06:39:05;;;;;;;4.17;3.00;;;;;;;15.62;61.74;95180.75;5111176;28;20216;-44
2023/05/14 06:41:32;;;;;;;5.23;3.30;;;;;;;15.60;61.95;95180.91;5110138;28;20570;-46
2023/05/14 06:43:59;;;;;;;8.17;6.17;;;;;;;15.60;62.18;95178.34;5109994;28;20246;-47
2023/05/14 06:46:26;;;;;;;4.07;3.50;;;;;;;15.60;62.25;95186.06;5110464;28;20219;-45
2023/05/14 06:48:54;;;;;;;4.00;3.67;;;;;;;15.60;62.36;95174.97;5110397;28;20193;-44
2023/05/14 06:51:21;;;;;;;5.13;3.50;;;;;;;15.60;62.54;95168.03;5110334;28;20176;-45
2023/05/14 06:53:48;;;;;;;8.43;3.43;;;;;;;15.59;62.75;95158.69;5110443;28;20189;-47
2023/05/14 06:56:15;;;;;;;4.00;3.60;;;;;;;15.52;62.97;95153.34;5109914;28;20238;-46
2023/05/14 06:58:41;;;;;;;5.50;3.80;;;;;;;15.60;62.78;95152.56;5110398;28;20229;-44
2023/05/14 07:01:08;;;;;;;4.57;3.60;;;;;;;15.63;63.03;95152.25;5110024;28;20181;-43
2023/05/14 07:03:35;;;;;;;5.77;3.73;;;;;;;15.63;62.96;95154.84;5110608;28;20272;-47
2023/05/14 07:06:04;;;;;;;3.67;3.37;;;;;;;15.73;62.82;95160.69;5110531;28;20177;-45
2023/05/14 07:08:31;;;;;;;4.23;3.63;;;;;;;15.80;62.78;95164.25;5109952;28;20203;-46
2023/05/14 07:10:57;;;;;;;5.60;3.70;;;;;;;15.86;62.61;95155.06;5110061;28;20196;-46
2023/05/14 07:13:25;;;;;;;4.43;3.63;;;;;;;15.94;62.68;95162.81;5110168;28;20181;-47
2023/05/14 07:15:54;;;;;;;3.70;3.20;;;;;;;16.05;62.47;95184.91;5110342;28;20178;-45
2023/05/14 07:18:21;;;;;;;3.60;3.13;;;;;;;16.09;62.53;95198.31;5110082;28;20241;-44
2023/05/14 07:20:48;;;;;;;4.13;3.37;;;;;;;16.10;62.44;95200.72;5110759;28;20201;-45
2023/05/14 07:23:16;;;;;;;4.83;3.60;;;;;;;16.09;62.58;95201.69;5109855;28;20227;-45
2023/05/14 07:25:43;;;;;;;4.10;3.70;;;;;;;16.07;62.64;95185.56;5109672;28;20228;-43
2023/05/14 07:28:09;;;;;;;4.13;3.27;;;;;;;16.05;62.62;95188.31;5110113;28;20189;-45
2023/05/14 07:30:36;;;;;;;5.30;3.60;;;;;;;16.04;62.74;95191.06;5109999;28;20196;-47
2023/05/14 07:33:03;;;;;;;3.63;3.13;;;;;;;16.01;62.73;95184.41;5109805;28;20185;-45
2023/05/14 07:35:30;;;;;;;4.40;3.10;;;;;;;15.98;63.08;95189.91;5110001;28;20196;-47
2023/05/14 07:37:57;;;;;;;4.07;3.53;;;;;;;15.86;62.99;95175.69;5109740;28;20573;-45
2023/05/14 07:40:25;;;;;;;3.33;3.03;;;;;;;15.96;63.12;95191.03;5109821;28;20199;-45
2023/05/14 07:42:51;;;;;;;4.23;3.43;;;;;;;15.96;63.05;95194.41;5109849;28;20196;-47
2023/05/14 07:45:18;;;;;;;3.87;3.03;;;;;;;15.93;63.25;95187.00;5109644;28;20196;-46
2023/05/14 07:47:45;;;;;;;5.60;3.53;;;;;;;16.01;62.97;95194.75;5109988;28;20189;-45
2023/05/14 07:50:12;;;;;;;3.90;3.33;;;;;;;16.05;63.17;95203.78;5109384;28;20216;-46
2023/05/14 07:52:39;;;;;;;3.93;3.57;;;;;;;15.99;62.82;95188.94;5109715;28;20542;-45
2023/05/14 07:55:07;;;;;;;4.27;3.40;;;;;;;16.03;63.04;95192.81;5109836;28;20740;-44
2023/05/14 07:57:36;;;;;;;4.33;3.53;;;;;;;16.11;62.96;95196.41;5113380;28;20696;-46
2023/05/14 08:00:03;;;;;;;4.50;3.50;;;;;;;16.11;62.99;95202.34;5113675;28;20223;-44
2023/05/14 08:02:30;;;;;;;6.53;3.60;;;;;;;16.16;62.95;95196.72;5113666;28;20221;-48
2023/05/14 08:04:57;;;;;;;4.03;3.27;;;;;;;16.19;62.86;95206.69;5113218;28;20197;-45
2023/05/14 08:07:24;;;;;;;3.50;3.20;;;;;;;16.22;63.07;95214.13;5113438;28;20284;-46
2023/05/14 08:09:51;;;;;;;3.73;3.23;;;;;;;16.21;63.01;95205.59;5113077;28;20185;-46
2023/05/14 08:12:17;;;;;;;4.90;3.40;;;;;;;16.28;63.01;95203.19;5113621;28;20271;-46
2023/05/14 08:14:46;;;;;;;5.67;3.63;;;;;;;16.27;62.82;95184.28;5113642;28;20188;-45
2023/05/14 08:17:13;;;;;;;7.17;3.43;;;;;;;16.33;63.09;95180.28;5113199;28;20188;-45
2023/05/14 08:19:40;;;;;;;3.97;3.40;;;;;;;16.38;62.91;95177.22;5113298;28;20282;-47
2023/05/14 08:22:07;;;;;;;4.67;3.50;;;;;;;16.42;63.02;95181.88;5112879;28;20185;-46
2023/05/14 08:24:33;;;;;;;5.30;3.70;;;;;;;16.47;62.99;95179.63;5113074;28;20564;-44
2023/05/14 08:27:01;;;;;;;3.90;3.50;;;;;;;16.51;62.96;95167.22;5112991;28;20189;-47
2023/05/14 08:29:27;;;;;;;5.13;3.70;;;;;;;16.59;62.80;95177.53;5113015;28;20200;-47
2023/05/14 08:31:56;;;;;;;6.17;4.10;;;;;;;16.62;62.84;95169.44;5112878;28;20196;-45
2023/05/14 08:34:23;;;;;;;4.53;3.80;;;;;;;16.69;62.88;95178.16;5112566;28;20580;-46
2023/05/14 08:36:49;;;;;;;4.63;3.60;;;;;;;16.74;62.87;95177.69;5112925;28;20196;-45
2023/05/14 08:39:16;;;;;;;4.43;4.00;;;;;;;16.62;62.76;95140.22;5112769;28;20611;-47
2023/05/14 08:41:43;;;;;;;4.83;3.83;;;;;;;16.80;62.72;95148.66;5112865;28;20189;-46
2023/05/14 08:44:13;;;;;;;4.17;3.60;;;;;;;16.92;62.87;95155.06;5113109;28;20185;-46
2023/05/14 08:46:41;;;;;;;4.00;3.70;;;;;;;16.96;62.61;95146.00;5112943;28;20192;-46
2023/05/14 08:49:21;;;;;;;6.43;4.00;;;;;;;17.05;62.66;95151.94;5112869;28;20794;-46
2023/05/14 08:51:48;;;;;;;4.60;3.40;;;;;;;17.09;62.56;95168.75;5112596;28;20189;-43
2023/05/14 08:54:16;;;;;;;4.43;4.00;;;;;;;17.10;62.36;95166.97;5112742;28;20193;-46
2023/05/14 08:56:54;;;;;;;5.33;3.57;;;;;;;17.08;62.46;95143.06;5112193;28;20644;-45
2023/05/14 08:59:21;;;;;;;4.13;3.70;;;;;;;17.10;62.59;95154.88;5112743;28;20693;-44
2023/05/14 09:01:51;;;;;;;6.03;4.13;;;;;;;17.08;62.73;95145.66;5113019;28;20177;-47
2023/05/14 09:04:21;;;;;;;4.20;3.73;;;;;;;17.10;62.58;95160.03;5112941;28;20185;-42
2023/05/14 09:06:49;;;;;;;5.47;3.50;;;;;;;17.14;62.48;95163.06;5111471;28;20189;-50
2023/05/14 09:09:16;;;;;;;7.23;3.63;;;;;;;17.07;62.36;95142.28;5112700;28;20192;-45
2023/05/14 09:11:46;;;;;;;4.17;3.77;;;;;;;17.16;62.49;95143.06;5097772;28;20575;-45
2023/05/14 09:14:13;;;;;;;3.37;3.07;;;;;;;17.30;62.14;95147.50;5115223;28;20181;-44
2023/05/14 09:16:41;;;;;;;7.13;3.50;;;;;;;17.36;62.17;95148.63;5112649;28;20196;-45
2023/05/14 09:19:09;;;;;;;5.13;3.53;;;;;;;17.38;62.06;95152.66;5112267;28;20224;-47
2023/05/14 09:21:37;;;;;;;4.57;3.30;;;;;;;17.40;61.99;95148.13;5111984;28;20193;-45
2023/05/14 09:24:04;;;;;;;3.97;3.27;;;;;;;17.41;62.06;95157.50;5111458;28;20568;-47
2023/05/14 09:26:33;;;;;;;4.37;3.83;;;;;;;17.42;61.90;95151.34;5111768;28;20586;-44
2023/05/14 09:29:02;;;;;;;7.90;4.13;;;;;;;17.41;62.15;95136.00;5111770;28;20193;-42
2023/05/14 09:31:30;;;;;;;4.47;3.40;;;;;;;17.43;62.07;95137.44;5111843;28;20192;-46
2023/05/14 09:33:58;;;;;;;3.97;3.57;;;;;;;17.45;62.12;95143.25;5111475;28;20200;-45
2023/05/14 09:36:25;;;;;;;5.67;3.40;;;;;;;17.27;62.13;95119.41;5112079;28;20216;-44
2023/05/14 09:38:56;;;;;;;5.10;3.40;;;;;;;17.46;62.11;95146.66;5111538;28;20209;-45
2023/05/14 09:41:23;;;;;;;5.90;3.83;;;;;;;17.43;62.16;95131.47;5111947;28;20595;-45
2023/05/14 09:43:50;;;;;;;4.83;3.27;;;;;;;17.46;62.19;95123.38;5111517;28;20196;-45
2023/05/14 09:46:17;;;;;;;5.03;3.87;;;;;;;17.46;61.99;95129.34;5111873;28;20312;-46
2023/05/14 09:48:45;;;;;;;5.03;3.67;;;;;;;17.37;62.16;95117.44;5111172;28;20192;-43
2023/05/14 09:51:13;;;;;;;4.73;3.67;;;;;;;17.43;62.24;95129.69;5111328;28;20189;-43
2023/05/14 09:53:51;;;;;;;;;;;;;;;;;;;;;
2023/05/14 09:56:20;;;;;;;4.00;3.43;;;;;;;17.44;62.37;95123.56;5111572;28;20230;-45
2023/05/14 09:58:47;;;;;;;5.77;3.70;;;;;;;17.45;62.35;95130.31;5111151;28;20651;-45
2023/05/14 10:01:17;;;;;;;3.80;3.40;;;;;;;17.45;62.27;95129.53;5111343;28;20188;-45
2023/05/14 10:03:45;;;;;;;3.47;3.17;;;;;;;17.43;62.24;95121.13;5111244;28;20193;-43
2023/05/14 10:06:16;;;;;;;3.77;3.10;;;;;;;17.19;62.25;95076.31;5111534;28;20193;-44
2023/05/14 10:08:45;;;;;;;3.80;3.13;;;;;;;17.37;62.38;95099.34;5111087;28;20677;-46
2023/05/14 10:11:14;;;;;;;3.27;2.97;;;;;;;17.34;62.38;95102.25;5110966;28;20195;-47
2023/05/14 10:13:55;;;;;;;5.33;3.20;;;;;;;17.28;62.57;95098.56;5110574;28;20557;-45
2023/05/14 10:16:29;;;;;;;3.40;3.10;;;;;;;17.27;62.60;95090.97;5111107;28;20212;-45
2023/05/14 10:19:00;;;;;;;4.17;3.63;;;;;;;17.22;62.65;95078.56;5110324;28;20225;-48
2023/05/14 10:21:30;;;;;;;3.40;3.07;;;;;;;17.18;62.52;95068.72;5111355;28;20189;-47
2023/05/14 10:23:58;;;;;;;4.17;3.37;;;;;;;17.13;62.86;95074.41;5111055;28;20193;-47
2023/05/14 10:26:26;;;;;;;3.90;3.57;;;;;;;17.04;63.06;95091.72;5111177;28;20200;-44
2023/05/14 10:28:55;;;;;;;3.60;3.27;;;;;;;16.64;63.06;95032.44;5111965;28;20186;-46
2023/05/14 10:31:23;;;;;;;3.50;3.20;;;;;;;17.05;63.13;95097.69;5111568;28;20189;-43
2023/05/14 10:33:51;;;;;;;4.23;3.10;;;;;;;17.02;63.22;95101.44;5110629;28;20665;-44
2023/05/14 10:36:18;;;;;;;3.60;3.30;;;;;;;16.98;63.31;95083.84;5111243;28;20228;-46
2023/05/14 10:38:46;;;;;;;4.63;3.40;;;;;;;16.93;63.20;95089.50;5110374;28;20216;-44
2023/05/14 10:41:16;;;;;;;4.37;3.30;;;;;;;16.92;63.27;95098.22;5111125;28;20201;-48
2023/05/14 10:43:44;;;;;;;3.87;3.10;;;;;;;16.92;63.25;95087.06;5111364;28;20177;-46
2023/05/14 10:46:13;;;;;;;4.00;3.07;;;;;;;16.43;63.43;95000.22;5111494;28;20192;-45
2023/05/14 10:48:44;;;;;;;3.20;2.90;;;;;;;16.94;63.25;95085.94;5110687;28;20577;-48
2023/05/14 10:51:11;;;;;;;6.23;2.80;;;;;;;16.97;63.29;95093.38;5110477;28;20636;-46
2023/05/14 10:53:39;;;;;;;3.73;3.23;;;;;;;16.67;63.26;95037.28;5110669;28;20181;-46
2023/05/14 10:56:08;;;;;;;4.73;3.50;;;;;;;17.04;63.23;95083.16;5110644;28;20189;-46
2023/05/14 10:58:38;;;;;;;5.63;3.40;;;;;;;17.07;63.18;95062.16;5110744;28;20576;-46
2023/05/14 11:01:07;;;;;;;3.77;3.47;;;;;;;17.13;63.22;95069.22;5110143;28;20193;-48
2023/05/14 11:03:40;;;;;;;6.87;3.43;;;;;;;17.23;63.07;95081.97;5110241;28;20189;-47
2023/05/14 11:06:08;;;;;;;4.00;3.70;;;;;;;17.32;62.83;95078.38;5109725;28;20733;-45
2023/05/14 11:08:35;;;;;;;3.73;3.43;;;;;;;17.37;62.64;95094.16;5110185;28;20185;-43
2023/05/14 11:11:02;;;;;;;3.80;3.20;;;;;;;17.39;62.90;95084.44;5110204;28;20216;-45
2023/05/14 11:13:30;;;;;;;3.87;3.27;;;;;;;17.44;62.88;95084.78;5110390;28;20208;-45
2023/05/14 11:15:58;;;;;;;4.20;3.80;;;;;;;17.50;62.82;95088.44;5110543;28;20189;-48
2023/05/14 11:18:29;;;;;;;4.33;3.70;;;;;;;17.55;62.80;95097.28;5110367;28;20203;-46
2023/05/14 11:21:00;;;;;;;4.07;3.77;;;;;;;17.60;62.66;95089.03;5109905;28;20220;-45
2023/05/14 11:23:27;;;;;;;4.40;3.40;;;;;;;17.64;62.59;95099.84;5110172;28;20245;-43
2023/05/14 11:25:55;;;;;;;6.37;3.93;;;;;;;17.62;62.71;95083.69;5109751;28;20282;-46
2023/05/14 11:28:23;;;;;;;5.77;3.57;;;;;;;17.68;62.68;95081.22;5110233;28;20662;-44
2023/05/14 11:30:50;;;;;;;3.33;3.00;;;;;;;17.71;62.49;95074.91;5112494;28;20188;-46
2023/05/14 11:33:17;;;;;;;4.57;3.57;;;;;;;17.79;62.41;95074.88;5114755;28;20189;-47
2023/05/14 11:35:45;;;;;;;3.80;3.50;;;;;;;17.87;62.31;95079.16;5114966;28;20183;-53